Time;durP1;ratioP1;P1;durP2;ratioP2;P2;SDS_P1;SDS_P2;PMS_P1;PMS_P2;Temp;Humidity;BMP_temperature;BMP_pressure;BME280_temperature;BME280_humidity;BME280_pressure;Samples;Min_cycle;Max_cycle;Signal;HPM_P1;HPM_P2
2022/04/23 00:00:13;;;;;;;;;;;;;;;7.49;85.82;97520.31;3219555;23;19938;-79
2022/04/23 00:01:48;;;;;;;;;;;;;;;7.54;85.74;97522.75;3220162;22;19919;-79
2022/04/23 00:03:03;;;;;;;;;;;;;;;7.52;86.15;97511.53;3219371;22;19930;-79
2022/04/23 00:04:19;;;;;;;;;;;;;;;7.49;85.70;97515.94;3219634;23;19943;-81
2022/04/23 00:05:34;;;;;;;;;;;;;;;7.52;85.67;97519.34;3219288;22;19931;-79
2022/04/23 00:06:50;;;;;;;;;;;;;;;7.52;85.57;97515.00;3219320;23;19930;-79
2022/04/23 00:08:05;;;;;;;;;;;;;;;7.56;85.15;97516.59;3219464;23;20271;-80
2022/04/23 00:09:21;;;;;;;;;;;;;;;7.59;85.50;97523.47;3220135;23;19943;-79
2022/04/23 00:10:36;;;;;;;;;;;;;;;7.56;85.65;97520.97;3219909;23;20309;-78
2022/04/23 00:11:55;;;;;;;;;;;;;;;7.52;85.53;97509.78;3219804;22;20242;-80
2022/04/23 00:13:11;;;;;;;;;;;;;;;7.51;85.88;97520.25;3219227;22;19979;-79
2022/04/23 00:14:27;;;;;;;;;;;;;;;7.52;85.46;97512.41;3219653;23;19927;-79
2022/04/23 00:15:43;;;;;;;;;;;;;;;7.49;85.64;97513.34;3219812;22;19924;-79
2022/04/23 00:17:00;;;;;;;;;;;;;;;7.52;85.28;97520.22;3219668;22;20692;-79
2022/04/23 00:18:15;;;;;;;;;;;;;;;7.52;85.18;97516.75;3219947;22;20359;-80
2022/04/23 00:19:31;;;;;;;;;;;;;;;7.51;85.70;97512.44;3219651;23;19923;-80
2022/04/23 00:20:46;;;;;;;;;;;;;;;7.47;85.56;97512.53;3219631;23;19977;-79
2022/04/23 00:22:02;;;;;;;;;;;;;;;7.46;85.87;97515.19;3219452;22;19966;-78
2022/04/23 00:23:17;;;;;;;;;;;;;;;7.48;85.43;97519.44;3219301;22;20293;-82
2022/04/23 00:24:33;;;;;;;;;;;;;;;7.46;85.43;97516.03;3219625;23;19923;-79
2022/04/23 00:25:52;;;;;;;;;;;;;;;7.47;85.47;97511.66;3219373;23;19924;-79
2022/04/23 00:27:07;;;;;;;;;;;;;;;7.44;85.56;97515.25;3219626;22;19928;-79
2022/04/23 00:28:22;;;;;;;;;;;;;;;7.46;85.15;97518.66;3219768;23;19950;-82
2022/04/23 00:29:39;;;;;;;;;;;;;;;7.44;85.51;97515.25;3219903;23;20346;-79
2022/04/23 00:30:55;;;;;;;;;;;;;;;7.43;85.76;97513.53;3219651;22;20350;-79
2022/04/23 00:32:11;;;;;;;;;;;;;;;7.41;85.97;97511.88;3219476;22;19920;-79
2022/04/23 00:33:26;;;;;;;;;;;;;;;7.44;85.57;97512.63;3219222;22;19970;-79
2022/04/23 00:34:41;;;;;;;;;;;;;;;7.45;85.67;97509.13;3219303;22;19920;-78
2022/04/23 00:35:57;;;;;;;;;;;;;;;7.40;85.61;97508.41;3219153;23;20582;-79
2022/04/23 00:37:14;;;;;;;;;;;;;;;7.39;85.89;97511.06;3219310;23;20316;-78
2022/04/23 00:38:29;;;;;;;;;;;;;;;7.44;85.07;97512.63;3219933;22;19924;-79
2022/04/23 00:39:45;;;;;;;;;;;;;;;7.42;85.61;97508.38;3219614;23;19923;-79
2022/04/23 00:41:00;;;;;;;;;;;;;;;7.38;85.63;97507.59;3219644;22;19923;-81
2022/04/23 00:42:17;;;;;;;;;;;;;;;7.37;85.98;97505.06;3219377;23;19990;-79
2022/04/23 00:43:35;;;;;;;;;;;;;;;7.34;86.00;97511.19;3219693;22;19927;-79
2022/04/23 00:44:51;;;;;;;;;;;;;;;7.32;86.43;97513.00;3219442;22;19919;-79
2022/04/23 00:46:06;;;;;;;;;;;;;;;7.29;86.58;97510.50;3219545;23;19928;-79
2022/04/23 00:47:22;;;;;;;;;;;;;;;7.26;85.94;97506.22;3219564;22;20412;-79
2022/04/23 00:48:37;;;;;;;;;;;;;;;7.26;86.01;97503.63;3219220;22;19977;-79
2022/04/23 00:49:53;;;;;;;;;;;;;;;7.29;85.64;97507.91;3219625;23;20322;-79
2022/04/23 00:51:12;;;;;;;;;;;;;;;7.29;85.97;97515.69;3219191;23;19990;-79
2022/04/23 00:52:27;;;;;;;;;;;;;;;7.31;85.93;97508.69;3219024;22;20006;-79
2022/04/23 00:53:43;;;;;;;;;;;;;;;7.30;86.06;97507.81;3219591;22;19931;-79
2022/04/23 00:55:08;;;;;;;;;;;;;;;7.32;85.93;97513.84;3219210;22;19923;-79
2022/04/23 00:56:23;;;;;;;;;;;;;;;7.32;85.77;97508.63;3219333;22;20327;-79
2022/04/23 00:57:38;;;;;;;;;;;;;;;7.30;85.84;97505.22;3218978;23;19920;-80
2022/04/23 00:58:54;;;;;;;;;;;;;;;7.29;85.85;97500.91;3218996;23;19919;-79
2022/04/23 01:00:10;;;;;;;;;;;;;;;7.28;85.92;97506.19;3219132;22;19924;-79
2022/04/23 01:01:25;;;;;;;;;;;;;;;7.27;85.79;97504.50;3219148;22;19931;-79
2022/04/23 01:02:40;;;;;;;;;;;;;;;7.26;86.38;97503.63;3218857;22;20014;-79
2022/04/23 01:03:57;;;;;;;;;;;;;;;7.24;85.99;97505.41;3219359;23;20330;-79
2022/04/23 01:05:14;;;;;;;;;;;;;;;7.21;86.47;97502.91;3219221;22;19949;-79
2022/04/23 01:06:33;;;;;;;;;;;;;;;7.21;85.98;97511.56;3219256;22;19970;-79
2022/04/23 01:07:49;;;;;;;;;;;;;;;7.21;85.94;97506.34;3219339;22;19927;-79
2022/04/23 01:09:06;;;;;;;;;;;;;;;7.23;85.61;97508.94;3219100;22;20002;-79
2022/04/23 01:10:22;;;;;;;;;;;;;;;7.28;85.29;97507.03;3219295;22;20723;-79
2022/04/23 01:11:38;;;;;;;;;;;;;;;7.26;85.65;97507.97;3219374;22;19976;-80
2022/04/23 01:12:53;;;;;;;;;;;;;;;7.24;85.31;97512.38;3219375;23;20132;-79
2022/04/23 01:14:09;;;;;;;;;;;;;;;7.19;85.90;97504.69;3219401;22;19923;-79
2022/04/23 01:15:25;;;;;;;;;;;;;;;7.19;85.57;97502.94;3219735;22;19924;-80
2022/04/23 01:16:42;;;;;;;;;;;;;;;7.19;85.75;97512.50;3219059;23;19977;-80
2022/04/23 01:17:57;;;;;;;;;;;;;;;7.18;85.59;97509.06;3218994;22;19949;-79
2022/04/23 01:19:13;;;;;;;;;;;;;;;7.18;85.71;97506.44;3219415;22;20007;-79
2022/04/23 01:20:28;;;;;;;;;;;;;;;7.17;85.33;97512.56;3219256;23;19923;-80
2022/04/23 01:21:44;;;;;;;;;;;;;;;7.19;84.90;97515.97;3218959;23;19930;-80
2022/04/23 01:23:00;;;;;;;;;;;;;;;7.17;85.20;97512.56;3218604;22;19939;-79
2022/04/23 01:24:15;;;;;;;;;;;;;;;7.15;85.12;97511.75;3219608;22;20743;-79
2022/04/23 01:25:32;;;;;;;;;;;;;;;7.15;85.19;97513.50;3219343;22;19934;-79
2022/04/23 01:26:48;;;;;;;;;;;;;;;7.15;84.94;97506.56;3219155;22;20346;-79
2022/04/23 01:28:04;;;;;;;;;;;;;;;7.16;84.82;97508.25;3219740;23;19945;-79
2022/04/23 01:29:19;;;;;;;;;;;;;;;7.18;84.58;97502.97;3219238;22;19924;-79
2022/04/23 01:30:35;;;;;;;;;;;;;;;7.17;84.41;97509.09;3219120;23;19933;-79
2022/04/23 01:31:51;;;;;;;;;;;;;;;7.17;84.10;97499.53;3218913;23;20394;-79
2022/04/23 01:33:06;;;;;;;;;;;;;;;7.15;84.37;97503.94;3218718;22;19934;-79
2022/04/23 01:34:21;;;;;;;;;;;;;;;7.12;84.25;97505.78;3219162;23;19950;-79
2022/04/23 01:35:37;;;;;;;;;;;;;;;7.17;84.70;97507.34;3219241;23;19923;-79
2022/04/23 01:36:52;;;;;;;;;;;;;;;7.13;84.36;97508.34;3218388;23;20361;-79
2022/04/23 01:38:08;;;;;;;;;;;;;;;7.17;84.16;97499.53;3219225;22;20338;-79
2022/04/23 01:39:23;;;;;;;;;;;;;;;7.13;83.66;97503.16;3219457;23;19978;-79
2022/04/23 01:40:39;;;;;;;;;;;;;;;7.15;82.92;97506.56;3219701;23;19923;-79
2022/04/23 01:41:55;;;;;;;;;;;;;;;7.13;82.79;97504.88;3219352;22;20311;-79
2022/04/23 01:43:10;;;;;;;;;;;;;;;7.08;82.85;97505.00;3219233;23;20401;-79
2022/04/23 01:44:26;;;;;;;;;;;;;;;7.12;83.08;97501.41;3219564;22;20290;-79
2022/04/23 01:45:41;;;;;;;;;;;;;;;7.07;83.39;97509.38;3219866;22;19935;-79
2022/04/23 01:46:57;;;;;;;;;;;;;;;7.05;83.15;97505.09;3219967;23;19927;-79
2022/04/23 01:48:12;;;;;;;;;;;;;;;7.01;83.99;97504.34;3220446;23;19930;-79
2022/04/23 01:49:27;;;;;;;;;;;;;;;7.00;83.86;97507.84;3219783;23;19924;-79
2022/04/23 01:50:43;;;;;;;;;;;;;;;6.97;83.28;97509.66;3220390;23;20339;-79
2022/04/23 01:51:59;;;;;;;;;;;;;;;6.99;82.47;97506.13;3220151;23;19923;-79
2022/04/23 01:53:14;;;;;;;;;;;;;;;6.98;82.43;97511.38;3219655;22;20339;-79
2022/04/23 01:54:30;;;;;;;;;;;;;;;6.95;82.65;97503.66;3220145;22;19927;-79
2022/04/23 01:55:45;;;;;;;;;;;;;;;6.91;82.52;97508.94;3220248;22;20355;-80
2022/04/23 01:57:02;;;;;;;;;;;;;;;6.99;81.76;97505.28;3220336;22;19920;-80
2022/04/23 01:58:17;;;;;;;;;;;;;;;7.00;81.63;97513.03;3220223;22;20366;-80
2022/04/23 01:59:32;;;;;;;;;;;;;;;6.95;82.16;97516.66;3220259;23;19923;-80
2022/04/23 02:00:48;;;;;;;;;;;;;;;6.95;81.92;97512.31;3220194;23;19994;-80
2022/04/23 02:02:04;;;;;;;;;;;;;;;6.90;82.17;97512.44;3220287;22;20361;-80
2022/04/23 02:03:20;;;;;;;;;;;;;;;6.84;82.43;97515.22;3219688;22;20029;-80
2022/04/23 02:04:35;;;;;;;;;;;;;;;6.77;82.29;97521.50;3220222;22;19954;-79
2022/04/23 02:05:50;;;;;;;;;;;;;;;6.74;82.80;97512.00;3219100;23;19926;-79
2022/04/23 02:07:06;;;;;;;;;;;;;;;6.73;82.40;97514.69;3219720;23;20213;-79
2022/04/23 02:08:21;;;;;;;;;;;;;;;6.73;83.06;97505.09;3220379;23;19919;-79
2022/04/23 02:09:37;;;;;;;;;;;;;;;6.70;82.19;97513.00;3220491;23;19923;-79
2022/04/23 02:10:52;;;;;;;;;;;;;;;6.68;81.91;97513.94;3220420;23;19927;-80
2022/04/23 02:12:08;;;;;;;;;;;;;;;6.65;80.81;97514.88;3220249;22;19919;-79
2022/04/23 02:13:23;;;;;;;;;;;;;;;6.62;81.16;97521.00;3220534;22;19923;-79
2022/04/23 02:14:39;;;;;;;;;;;;;;;6.64;80.48;97515.78;3220564;23;20319;-81
2022/04/23 02:15:55;;;;;;;;;;;;;;;6.66;80.58;97513.13;3220153;23;19938;-80
2022/04/23 02:17:11;;;;;;;;;;;;;;;6.68;80.86;97524.34;3219980;22;19923;-79
2022/04/23 02:18:28;;;;;;;;;;;;;;;6.64;80.68;97524.44;3220203;23;19934;-79
2022/04/23 02:19:43;;;;;;;;;;;;;;;6.66;80.73;97513.13;3219974;22;19926;-79
2022/04/23 02:20:58;;;;;;;;;;;;;;;6.67;81.13;97515.69;3220273;23;19927;-79
2022/04/23 02:22:14;;;;;;;;;;;;;;;6.70;80.57;97515.59;3219339;22;19924;-79
2022/04/23 02:23:31;;;;;;;;;;;;;;;6.66;80.47;97516.59;3219801;23;19924;-79
2022/04/23 02:24:46;;;;;;;;;;;;;;;6.64;80.06;97511.41;3220327;22;19924;-79
2022/04/23 02:26:04;;;;;;;;;;;;;;;6.68;80.61;97513.94;3219844;22;19923;-79
2022/04/23 02:27:19;;;;;;;;;;;;;;;6.66;79.88;97511.38;3219979;22;19924;-79
2022/04/23 02:28:35;;;;;;;;;;;;;;;6.63;80.43;97506.25;3219913;23;20334;-79
2022/04/23 02:29:50;;;;;;;;;;;;;;;6.60;80.10;97514.13;3220516;22;19924;-79
2022/04/23 02:31:07;;;;;;;;;;;;;;;6.61;79.88;97515.84;3219948;22;19993;-79
2022/04/23 02:32:22;;;;;;;;;;;;;;;6.56;80.32;97518.56;3219965;22;20266;-79
2022/04/23 02:33:38;;;;;;;;;;;;;;;6.57;79.09;97512.50;3219966;23;19923;-79
2022/04/23 02:34:54;;;;;;;;;;;;;;;6.56;78.92;97518.56;3219996;22;20267;-79
2022/04/23 02:36:11;;;;;;;;;;;;;;;6.55;79.26;97514.25;3219962;22;20017;-79
2022/04/23 02:37:27;;;;;;;;;;;;;;;6.57;78.39;97522.03;3225304;22;19927;-79
2022/04/23 02:38:42;;;;;;;;;;;;;;;6.53;78.74;97515.22;3220290;22;19924;-79
2022/04/23 02:39:58;;;;;;;;;;;;;;;6.52;78.50;97519.56;3220671;23;20007;-79
2022/04/23 02:41:13;;;;;;;;;;;;;;;6.54;77.95;97520.34;3220136;23;19923;-79
2022/04/23 02:42:29;;;;;;;;;;;;;;;6.58;78.25;97518.53;3220333;23;20252;-80
2022/04/23 02:43:45;;;;;;;;;;;;;;;6.54;79.11;97512.56;3220022;22;19924;-79
2022/04/23 02:45:03;;;;;;;;;;;;;;;6.50;78.74;97513.53;3220082;23;19923;-79
2022/04/23 02:46:19;;;;;;;;;;;;;;;6.46;79.05;97517.97;3219830;23;19923;-79
2022/04/23 02:47:42;;;;;;;;;;;;;;;6.48;79.18;97520.53;3220323;22;19920;-79
2022/04/23 02:48:58;;;;;;;;;;;;;;;6.45;78.99;97515.41;3220381;22;19923;-79
2022/04/23 02:50:14;;;;;;;;;;;;;;;6.45;78.81;97511.06;3219882;22;19923;-79
2022/04/23 02:51:30;;;;;;;;;;;;;;;6.43;78.72;97514.63;3220279;22;19924;-79
2022/04/23 02:52:45;;;;;;;;;;;;;;;6.39;78.63;97515.56;3219877;23;20515;-79
2022/04/23 02:54:00;;;;;;;;;;;;;;;6.41;78.43;97512.03;3219896;22;19977;-79
2022/04/23 02:55:16;;;;;;;;;;;;;;;6.44;78.30;97519.75;3219919;23;20666;-79
2022/04/23 02:56:33;;;;;;;;;;;;;;;6.44;78.55;97516.31;3219880;23;20358;-79
2022/04/23 02:57:48;;;;;;;;;;;;;;;6.40;78.76;97522.47;3220245;23;19931;-79
2022/04/23 02:59:05;;;;;;;;;;;;;;;6.34;78.71;97519.16;3220179;23;19924;-78
2022/04/23 03:00:21;;;;;;;;;;;;;;;6.29;78.43;97515.81;3219998;22;19955;-79
2022/04/23 03:01:36;;;;;;;;;;;;;;;6.27;78.14;97524.53;3219901;23;19938;-79
2022/04/23 03:02:52;;;;;;;;;;;;;;;6.26;78.02;97520.25;3219961;23;20539;-79
2022/04/23 03:04:10;;;;;;;;;;;;;;;6.20;78.76;97518.66;3220238;22;19935;-79
2022/04/23 03:05:26;;;;;;;;;;;;;;;6.21;78.36;97518.59;3219896;23;20243;-79
2022/04/23 03:06:41;;;;;;;;;;;;;;;6.23;78.00;97521.16;3220157;22;19923;-79
2022/04/23 03:07:59;;;;;;;;;;;;;;;6.22;78.32;97519.47;3219829;23;19990;-79
2022/04/23 03:09:15;;;;;;;;;;;;;;;6.19;78.51;97519.53;3220009;22;19930;-79
2022/04/23 03:10:30;;;;;;;;;;;;;;;6.14;78.72;97522.25;3220033;23;20250;-80
2022/04/23 03:11:47;;;;;;;;;;;;;;;6.21;78.50;97520.34;3220209;22;19923;-80
2022/04/23 03:13:02;;;;;;;;;;;;;;;6.20;78.07;97516.03;3219118;22;19924;-79
2022/04/23 03:14:19;;;;;;;;;;;;;;;6.15;78.15;97518.75;3220050;23;19923;-79
2022/04/23 03:15:35;;;;;;;;;;;;;;;6.15;78.31;97512.72;3219916;22;19970;-79
2022/04/23 03:16:50;;;;;;;;;;;;;;;6.16;78.29;97514.44;3219748;22;20368;-79
2022/04/23 03:18:10;;;;;;;;;;;;;;;6.08;78.53;97523.25;3220280;23;19923;-79
2022/04/23 03:19:25;;;;;;;;;;;;;;;6.09;78.19;97521.53;3218952;23;20520;-79
2022/04/23 03:20:41;;;;;;;;;;;;;;;6.05;78.32;97522.47;3219291;23;20286;-79
2022/04/23 03:21:57;;;;;;;;;;;;;;;6.04;78.38;97521.63;3219975;22;19924;-79
2022/04/23 03:23:13;;;;;;;;;;;;;;;6.03;78.51;97530.31;3219709;22;20406;-80
2022/04/23 03:24:29;;;;;;;;;;;;;;;5.97;79.09;97522.63;3220172;22;19924;-79
2022/04/23 03:25:44;;;;;;;;;;;;;;;5.95;79.04;97527.00;3219507;23;19977;-80
2022/04/23 03:27:01;;;;;;;;;;;;;;;5.96;78.65;97526.13;3219825;23;20350;-79
2022/04/23 03:28:17;;;;;;;;;;;;;;;6.00;78.54;97529.50;3219739;22;19950;-78
2022/04/23 03:29:33;;;;;;;;;;;;;;;6.03;77.88;97529.44;3219906;22;19923;-80
2022/04/23 03:30:48;;;;;;;;;;;;;;;6.00;77.89;97522.53;3219640;22;19934;-82
2022/04/23 03:32:04;;;;;;;;;;;;;;;5.90;78.90;97527.13;3219363;22;19930;-81
2022/04/23 03:33:19;;;;;;;;;;;;;;;5.90;78.76;97532.31;3219817;22;19923;-80
2022/04/23 03:34:35;;;;;;;;;;;;;;;5.88;78.86;97531.50;3220167;22;20417;-81
2022/04/23 03:35:50;;;;;;;;;;;;;;;5.90;78.50;97532.31;3219690;23;19930;-80
2022/04/23 03:37:05;;;;;;;;;;;;;;;5.88;78.33;97530.66;3219455;23;19924;-80
2022/04/23 03:38:21;;;;;;;;;;;;;;;5.85;78.66;97530.72;3219708;23;19923;-80
2022/04/23 03:39:37;;;;;;;;;;;;;;;5.87;78.68;97532.38;3219477;22;19934;-78
2022/04/23 03:40:55;;;;;;;;;;;;;;;5.83;77.97;97532.50;3219684;22;20350;-79
2022/04/23 03:42:11;;;;;;;;;;;;;;;5.80;78.49;97534.28;3219130;22;19923;-78
2022/04/23 03:43:27;;;;;;;;;;;;;;;5.77;78.66;97539.56;3219687;22;19934;-79
2022/04/23 03:44:42;;;;;;;;;;;;;;;5.75;78.84;97535.28;3219741;22;19927;-79
2022/04/23 03:45:57;;;;;;;;;;;;;;;5.71;79.38;97534.47;3219809;23;20316;-79
2022/04/23 03:47:13;;;;;;;;;;;;;;;5.68;78.99;97537.16;3219839;23;20216;-78
2022/04/23 03:48:29;;;;;;;;;;;;;;;5.67;79.43;97539.81;3219543;23;19930;-78
2022/04/23 03:49:44;;;;;;;;;;;;;;;5.67;79.23;97539.81;3219526;22;20351;-78
2022/04/23 03:50:59;;;;;;;;;;;;;;;5.65;79.25;97540.66;3219930;23;19955;-80
2022/04/23 03:52:15;;;;;;;;;;;;;;;5.63;79.69;97544.22;3219480;23;19928;-78
2022/04/23 03:53:30;;;;;;;;;;;;;;;5.63;79.80;97544.22;3219648;23;19923;-79
2022/04/23 03:54:46;;;;;;;;;;;;;;;5.60;79.41;97546.88;3219739;23;19935;-80
2022/04/23 03:56:02;;;;;;;;;;;;;;;5.60;79.17;97547.72;3219627;22;19923;-79
2022/04/23 03:57:17;;;;;;;;;;;;;;;5.57;79.39;97545.19;3219432;23;20312;-80
2022/04/23 03:58:33;;;;;;;;;;;;;;;5.57;79.56;97544.31;3219955;22;19919;-79
2022/04/23 03:59:48;;;;;;;;;;;;;;;5.58;78.99;97551.22;3219351;23;19991;-80
2022/04/23 04:01:04;;;;;;;;;;;;;;;5.60;79.70;97557.25;3219664;22;19919;-80
2022/04/23 04:02:19;;;;;;;;;;;;;;;5.57;79.55;97549.53;3219309;23;19971;-80
2022/04/23 04:03:35;;;;;;;;;;;;;;;5.58;79.61;97548.63;3219418;23;19927;-79
2022/04/23 04:04:51;;;;;;;;;;;;;;;5.51;79.97;97551.38;3219331;22;19919;-79
2022/04/23 04:06:06;;;;;;;;;;;;;;;5.50;79.40;97548.81;3219066;22;20402;-79
2022/04/23 04:07:21;;;;;;;;;;;;;;;5.48;79.61;97546.25;3219230;23;19924;-79
2022/04/23 04:08:37;;;;;;;;;;;;;;;5.51;80.29;97548.78;3219738;22;19950;-79
2022/04/23 04:09:53;;;;;;;;;;;;;;;5.48;80.32;97551.44;3219631;23;19967;-79
2022/04/23 04:11:08;;;;;;;;;;;;;;;5.47;80.08;97546.28;3219659;22;20302;-80
2022/04/23 04:12:24;;;;;;;;;;;;;;;5.48;80.57;97550.59;3219239;23;19923;-80
2022/04/23 04:13:39;;;;;;;;;;;;;;;5.38;80.41;97547.34;3219664;23;19931;-79
2022/04/23 04:14:55;;;;;;;;;;;;;;;5.35;80.36;97545.66;3219427;22;19954;-79
2022/04/23 04:16:10;;;;;;;;;;;;;;;5.40;79.83;97542.13;3220104;23;19924;-79
2022/04/23 04:17:26;;;;;;;;;;;;;;;5.36;80.28;97549.13;3219721;23;19930;-80
2022/04/23 04:18:41;;;;;;;;;;;;;;;5.33;80.60;97554.38;3219659;22;19920;-79
2022/04/23 04:19:57;;;;;;;;;;;;;;;5.30;80.99;97551.81;3219528;23;20002;-79
2022/04/23 04:21:13;;;;;;;;;;;;;;;5.23;80.74;97551.97;3219748;22;20262;-79
2022/04/23 04:22:30;;;;;;;;;;;;;;;5.21;81.04;97550.28;3219329;22;19923;-79
2022/04/23 04:23:46;;;;;;;;;;;;;;;5.20;80.63;97559.81;3219346;22;19923;-79
2022/04/23 04:25:01;;;;;;;;;;;;;;;5.23;80.75;97561.47;3219589;22;19930;-80
2022/04/23 04:26:17;;;;;;;;;;;;;;;5.20;80.75;97556.34;3219650;22;19927;-79
2022/04/23 04:27:34;;;;;;;;;;;;;;;5.22;81.25;97555.44;3219874;22;20249;-80
2022/04/23 04:28:49;;;;;;;;;;;;;;;5.22;81.03;97558.03;3219618;22;19924;-80
2022/04/23 04:30:06;;;;;;;;;;;;;;;5.23;80.98;97558.88;3219671;23;20006;-79
2022/04/23 04:32:56;;;;;;;;;;;;;;;5.31;80.53;97556.16;3224559;23;20368;-80
2022/04/23 04:34:12;;;;;;;;;;;;;;;5.28;80.31;97561.38;3220068;23;19923;-80
2022/04/23 04:35:27;;;;;;;;;;;;;;;5.24;80.88;97560.63;3219364;22;20001;-80
2022/04/23 04:36:43;;;;;;;;;;;;;;;5.26;80.38;97561.44;3219487;23;19992;-80
2022/04/23 04:37:58;;;;;;;;;;;;;;;5.27;80.81;97557.97;3219613;22;19923;-80
2022/04/23 04:39:14;;;;;;;;;;;;;;;5.32;80.50;97565.66;3219656;23;20347;-80
2022/04/23 04:40:30;;;;;;;;;;;;;;;5.31;80.59;97566.53;3219601;22;19972;-80
2022/04/23 04:41:46;;;;;;;;;;;;;;;5.33;80.62;97565.59;3220003;23;20010;-80
2022/04/23 04:43:02;;;;;;;;;;;;;;;5.32;80.65;97563.91;3219660;23;20396;-82
2022/04/23 04:44:18;;;;;;;;;;;;;;;5.36;80.43;97564.69;3219738;23;19947;-82
2022/04/23 04:45:33;;;;;;;;;;;;;;;5.31;80.06;97564.78;3220110;22;20429;-80
2022/04/23 04:46:49;;;;;;;;;;;;;;;5.32;80.60;97563.91;3219685;23;20077;-78
2022/04/23 04:48:05;;;;;;;;;;;;;;;5.32;79.78;97569.09;3219428;22;19924;-80
2022/04/23 04:49:22;;;;;;;;;;;;;;;5.26;80.01;97568.34;3219292;22;19924;-79
2022/04/23 04:50:37;;;;;;;;;;;;;;;5.22;80.59;97568.44;3219167;22;20358;-79
2022/04/23 04:51:53;;;;;;;;;;;;;;;5.27;81.09;97565.75;3219225;23;20150;-80
2022/04/23 04:53:08;;;;;;;;;;;;;;;5.33;80.03;97567.34;3219650;23;20177;-80
2022/04/23 04:54:24;;;;;;;;;;;;;;;5.28;79.82;97571.78;3219594;22;19977;-80
2022/04/23 04:55:40;;;;;;;;;;;;;;;5.26;80.17;97576.13;3219363;22;20002;-80
2022/04/23 04:56:56;;;;;;;;;;;;;;;5.23;80.12;97571.84;3219402;22;20049;-80
2022/04/23 04:58:11;;;;;;;;;;;;;;;5.26;79.88;97578.75;3219600;22;19926;-80
2022/04/23 04:59:27;;;;;;;;;;;;;;;5.25;79.86;97577.03;3219457;23;19927;-80
2022/04/23 05:00:42;;;;;;;;;;;;;;;5.27;80.20;97580.44;3219458;22;20412;-81
2022/04/23 05:01:59;;;;;;;;;;;;;;;5.28;80.27;97582.16;3218780;23;19924;-80
2022/04/23 05:03:14;;;;;;;;;;;;;;;5.34;79.78;97574.25;3219215;22;19966;-80
2022/04/23 05:04:31;;;;;;;;;;;;;;;5.35;79.68;97586.34;3219083;22;19923;-80
2022/04/23 05:05:46;;;;;;;;;;;;;;;5.37;79.92;97576.78;3219793;22;20002;-80
2022/04/23 05:07:02;;;;;;;;;;;;;;;5.37;79.74;97579.38;3219181;23;19929;-80
2022/04/23 05:08:17;;;;;;;;;;;;;;;5.44;79.16;97586.13;3219344;22;19998;-80
2022/04/23 05:09:33;;;;;;;;;;;;;;;5.45;79.23;97574.88;3219191;22;20247;-80
2022/04/23 05:10:48;;;;;;;;;;;;;;;5.47;79.29;97583.50;3219533;22;19930;-80
2022/04/23 05:12:04;;;;;;;;;;;;;;;5.53;78.97;97597.22;3218905;23;20791;-80
2022/04/23 05:13:19;;;;;;;;;;;;;;;5.53;78.88;97587.69;3219460;23;20393;-80
2022/04/23 05:14:35;;;;;;;;;;;;;;;5.61;78.13;97588.38;3219280;23;19924;-80
2022/04/23 05:15:51;;;;;;;;;;;;;;;5.63;78.42;97593.53;3219421;23;19930;-80
2022/04/23 05:17:07;;;;;;;;;;;;;;;5.59;78.76;97592.75;3219260;22;20270;-80
2022/04/23 05:18:22;;;;;;;;;;;;;;;5.57;78.58;97589.34;3219694;22;19923;-80
2022/04/23 05:19:38;;;;;;;;;;;;;;;5.55;79.10;97592.84;3219851;22;19930;-81
2022/04/23 05:20:53;;;;;;;;;;;;;;;5.53;79.13;97590.31;3219568;22;20445;-80
2022/04/23 05:22:09;;;;;;;;;;;;;;;5.56;78.84;97597.16;3219965;22;20384;-81
2022/04/23 05:23:24;;;;;;;;;;;;;;;5.54;79.08;97594.59;3220570;23;19924;-81
2022/04/23 05:24:40;;;;;;;;;;;;;;;5.54;79.11;97597.19;3220557;23;19923;-81
2022/04/23 05:25:55;;;;;;;;;;;;;;;5.59;79.23;97597.94;3220227;23;19999;-81
2022/04/23 05:27:11;;;;;;;;;;;;;;;5.59;78.86;97605.72;3220724;22;19923;-81
2022/04/23 05:28:26;;;;;;;;;;;;;;;5.65;78.32;97603.00;3220708;23;19930;-81
2022/04/23 05:29:42;;;;;;;;;;;;;;;5.69;78.17;97606.38;3220182;23;19930;-81
2022/04/23 05:30:57;;;;;;;;;;;;;;;5.75;78.05;97601.06;3220250;23;19934;-81
2022/04/23 05:32:13;;;;;;;;;;;;;;;5.82;77.93;97599.19;3220535;22;19931;-81
2022/04/23 05:33:28;;;;;;;;;;;;;;;5.84;77.92;97599.13;3220573;22;19923;-82
2022/04/23 05:34:44;;;;;;;;;;;;;;;5.84;78.10;97604.34;3220322;23;19927;-81
2022/04/23 05:36:00;;;;;;;;;;;;;;;5.84;77.99;97601.75;3220209;23;19923;-81
2022/04/23 05:37:15;;;;;;;;;;;;;;;5.94;77.78;97600.66;3225941;22;19927;-81
2022/04/23 05:38:31;;;;;;;;;;;;;;;6.00;77.01;97608.28;3220777;23;19923;-81
2022/04/23 05:39:46;;;;;;;;;;;;;;;6.02;77.03;97608.28;3220158;23;19923;-81
2022/04/23 05:41:02;;;;;;;;;;;;;;;6.01;77.34;97607.47;3220081;23;19930;-81
2022/04/23 05:42:17;;;;;;;;;;;;;;;6.03;77.11;97605.69;3220024;22;20006;-80
2022/04/23 05:43:33;;;;;;;;;;;;;;;6.01;76.78;97604.88;3221213;23;20022;-80
2022/04/23 05:44:49;;;;;;;;;;;;;;;6.06;77.11;97607.31;3220295;23;19978;-81
2022/04/23 05:46:05;;;;;;;;;;;;;;;6.15;76.76;97607.13;3220163;23;20001;-80
2022/04/23 05:47:20;;;;;;;;;;;;;;;6.20;76.69;97609.63;3220080;22;19919;-81
2022/04/23 05:48:39;;;;;;;;;;;;;;;6.24;76.53;97610.41;3220641;23;20204;-81
2022/04/23 05:49:54;;;;;;;;;;;;;;;6.32;76.19;97603.25;3220103;22;19950;-81
2022/04/23 05:51:10;;;;;;;;;;;;;;;6.38;75.91;97612.66;3220741;23;19923;-80
2022/04/23 05:52:25;;;;;;;;;;;;;;;6.43;75.37;97605.63;3220499;22;19966;-80
2022/04/23 05:53:41;;;;;;;;;;;;;;;6.41;75.46;97612.56;3219815;23;19999;-80
2022/04/23 05:54:57;;;;;;;;;;;;;;;6.39;75.57;97615.22;3220404;22;19923;-81
2022/04/23 05:56:12;;;;;;;;;;;;;;;6.45;75.61;97615.06;3220288;23;19923;-81
2022/04/23 05:57:27;;;;;;;;;;;;;;;6.44;75.49;97613.34;3220420;23;20120;-80
2022/04/23 05:58:43;;;;;;;;;;;;;;;6.50;75.98;97614.97;3220840;23;20083;-81
2022/04/23 05:59:58;;;;;;;;;;;;;;;6.46;75.11;97618.53;3220291;23;19927;-81
2022/04/23 06:01:14;;;;;;;;;;;;;;;6.55;75.46;97610.47;3220443;23;19923;-81
2022/04/23 06:02:31;;;;;;;;;;;;;;;6.59;75.15;97612.13;3220325;22;20038;-81
2022/04/23 06:03:47;;;;;;;;;;;;;;;6.74;74.97;97621.28;3220087;22;19923;-81
2022/04/23 06:05:03;;;;;;;;;;;;;;;6.74;74.62;97613.47;3220332;23;20314;-80
2022/04/23 06:06:20;;;;;;;;;;;;;;;6.78;74.73;97614.25;3220252;23;19931;-81
2022/04/23 06:07:36;;;;;;;;;;;;;;;6.83;74.35;97614.13;3220079;22;19924;-80
2022/04/23 06:08:51;;;;;;;;;;;;;;;6.90;74.33;97610.47;3220502;22;20010;-80
2022/04/23 06:10:07;;;;;;;;;;;;;;;6.99;74.17;97614.59;3220435;23;20190;-80
2022/04/23 06:11:22;;;;;;;;;;;;;;;7.07;73.16;97610.03;3220611;22;20318;-81
2022/04/23 06:12:38;;;;;;;;;;;;;;;7.09;73.00;97612.59;3220347;23;19943;-81
2022/04/23 06:13:53;;;;;;;;;;;;;;;7.21;72.61;97610.50;3219989;23;19990;-81
2022/04/23 06:15:09;;;;;;;;;;;;;;;7.17;73.21;97613.22;3220319;23;19924;-80
2022/04/23 06:16:25;;;;;;;;;;;;;;;7.03;72.99;97616.22;3220297;22;20003;-81
2022/04/23 06:17:40;;;;;;;;;;;;;;;7.13;72.84;97617.69;3220412;23;19927;-80
2022/04/23 06:18:56;;;;;;;;;;;;;;;7.21;72.79;97615.69;3220347;22;19919;-81
2022/04/23 06:20:12;;;;;;;;;;;;;;;7.25;72.63;97616.47;3220202;23;19997;-80
2022/04/23 06:21:27;;;;;;;;;;;;;;;7.31;72.32;97616.28;3220139;22;19951;-80
2022/04/23 06:22:42;;;;;;;;;;;;;;;7.39;72.28;97616.06;3220374;23;19978;-81
2022/04/23 06:23:58;;;;;;;;;;;;;;;7.40;72.14;97616.94;3219922;23;19924;-80
2022/04/23 06:25:13;;;;;;;;;;;;;;;7.51;71.53;97617.50;3220066;23;20374;-80
2022/04/23 06:26:29;;;;;;;;;;;;;;;7.53;71.41;97615.69;3220506;23;20010;-80
2022/04/23 06:27:44;;;;;;;;;;;;;;;7.60;71.28;97622.41;3220362;23;20407;-80
2022/04/23 06:29:00;;;;;;;;;;;;;;;7.70;70.92;97625.63;3220098;23;20230;-80
2022/04/23 06:30:16;;;;;;;;;;;;;;;7.63;71.28;97619.75;3220000;23;19947;-80
2022/04/23 06:31:31;;;;;;;;;;;;;;;7.68;71.27;97623.94;3220165;22;19924;-80
2022/04/23 06:32:46;;;;;;;;;;;;;;;7.65;70.57;97624.88;3219846;23;20301;-79
2022/04/23 06:34:02;;;;;;;;;;;;;;;7.79;70.53;97627.09;3219481;23;19919;-80
2022/04/23 06:35:18;;;;;;;;;;;;;;;7.82;69.95;97633.94;3220231;23;19924;-80
2022/04/23 06:36:36;;;;;;;;;;;;;;;7.96;69.72;97624.00;3219863;22;20691;-80
2022/04/23 06:37:54;;;;;;;;;;;;;;;7.91;69.97;97631.06;3220121;22;20362;-80
2022/04/23 06:39:09;;;;;;;;;;;;;;;7.94;69.97;97636.19;3219847;22;19931;-80
2022/04/23 06:40:25;;;;;;;;;;;;;;;8.11;69.51;97630.47;3220222;23;19965;-80
2022/04/23 06:41:40;;;;;;;;;;;;;;;8.08;70.00;97627.09;3219921;22;19999;-82